createdAt,value
2017-07-08T00:01:44.837Z,17.90
2017-07-08T00:04:11.153Z,18.70
2017-07-08T00:06:38.132Z,18.80
2017-07-08T00:09:04.431Z,19.83
2017-07-08T00:11:30.743Z,18.40
2017-07-08T00:13:57.133Z,20.53
2017-07-08T00:16:23.492Z,19.77
2017-07-08T00:18:49.794Z,19.07
2017-07-08T00:21:16.109Z,18.57
2017-07-08T00:23:43.718Z,19.37
2017-07-08T00:26:10.044Z,16.63
2017-07-08T00:28:36.393Z,18.87
2017-07-08T00:31:03.114Z,19.80
2017-07-08T00:33:29.440Z,19.23
2017-07-08T00:35:55.786Z,18.00
2017-07-08T00:38:22.256Z,17.97
2017-07-08T00:40:49.321Z,19.77
2017-07-08T00:43:15.656Z,19.97
2017-07-08T00:45:41.996Z,18.80
2017-07-08T00:48:08.391Z,21.90
2017-07-08T00:50:34.782Z,21.00
2017-07-08T00:53:01.097Z,22.30
2017-07-08T00:55:27.433Z,20.10
2017-07-08T00:57:53.765Z,19.20
2017-07-08T01:00:20.084Z,21.10
2017-07-08T01:02:46.427Z,19.80
2017-07-08T01:05:12.817Z,19.03
2017-07-08T01:07:39.155Z,20.30
2017-07-08T01:10:05.494Z,21.03
2017-07-08T01:12:31.834Z,21.50
2017-07-08T01:14:58.174Z,19.40
2017-07-08T01:17:24.706Z,21.97
2017-07-08T01:19:51.315Z,21.60
2017-07-08T01:22:17.632Z,21.93
2017-07-08T01:24:44.427Z,23.47
2017-07-08T01:27:10.763Z,22.20
2017-07-08T01:29:37.297Z,22.97
2017-07-08T01:32:03.655Z,22.50
2017-07-08T01:34:30.266Z,22.47
2017-07-08T01:36:56.845Z,21.97
2017-07-08T01:39:23.412Z,22.83
2017-07-08T01:41:50.021Z,25.40
2017-07-08T01:44:16.602Z,24.90
2017-07-08T01:46:43.177Z,24.40
2017-07-08T01:49:09.768Z,24.40
2017-07-08T01:51:36.442Z,25.70
2017-07-08T01:54:03.026Z,22.80
2017-07-08T01:56:29.623Z,24.93
2017-07-08T01:58:56.900Z,25.80
2017-07-08T02:01:23.460Z,26.70
2017-07-08T02:03:50.104Z,26.10
2017-07-08T02:06:17.436Z,24.20
2017-07-08T02:08:43.768Z,25.90
2017-07-08T02:11:10.080Z,24.23
2017-07-08T02:13:36.412Z,26.63
2017-07-08T02:16:02.769Z,24.77
2017-07-08T02:18:29.087Z,22.77
2017-07-08T02:20:55.609Z,25.17
2017-07-08T02:23:22.334Z,24.20
2017-07-08T02:25:49.404Z,28.50
2017-07-08T02:28:16.014Z,24.93
2017-07-08T02:30:43.085Z,26.43
2017-07-08T02:33:09.426Z,25.97
2017-07-08T02:35:36.027Z,25.87
2017-07-08T02:38:02.566Z,25.90
2017-07-08T02:40:29.123Z,26.07
2017-07-08T02:42:55.693Z,25.60
2017-07-08T02:45:22.170Z,26.17
2017-07-08T02:47:49.241Z,26.90
2017-07-08T02:50:15.564Z,26.37
2017-07-08T02:52:41.902Z,25.80
2017-07-08T02:55:08.222Z,29.07
2017-07-08T02:57:34.544Z,28.77
2017-07-08T03:00:01.117Z,28.67
2017-07-08T03:02:27.689Z,29.30
2017-07-08T03:04:54.997Z,29.10
2017-07-08T03:07:21.317Z,28.27
2017-07-08T03:09:47.629Z,29.50
2017-07-08T03:14:47.580Z,33.37
2017-07-08T03:17:14.295Z,34.60
2017-07-08T03:19:40.644Z,33.47
2017-07-08T03:22:06.974Z,33.50
2017-07-08T03:24:33.373Z,32.23
2017-07-08T03:26:59.807Z,35.93
2017-07-08T03:29:26.891Z,36.30
2017-07-08T03:31:53.243Z,35.33
2017-07-08T03:34:19.556Z,36.90
2017-07-08T03:36:45.905Z,34.27
2017-07-08T03:39:12.265Z,34.10
2017-07-08T03:41:38.667Z,38.17
2017-07-08T03:44:04.987Z,37.60
2017-07-08T03:46:31.329Z,36.50
2017-07-08T03:48:57.649Z,36.83
2017-07-08T03:51:24.026Z,36.07
2017-07-08T03:53:50.354Z,35.23
2017-07-08T03:56:17.477Z,34.50
2017-07-08T03:58:43.808Z,35.10
2017-07-08T04:01:10.276Z,36.00
2017-07-08T04:03:36.597Z,37.60
2017-07-08T04:06:02.937Z,33.93
2017-07-08T04:08:30.010Z,36.50
2017-07-08T04:10:56.402Z,35.37
2017-07-08T04:13:22.842Z,35.97
2017-07-08T04:15:49.236Z,32.23
2017-07-08T04:18:15.647Z,33.10
2017-07-08T04:20:42.003Z,35.70
2017-07-08T04:23:08.514Z,34.83
2017-07-08T04:25:34.908Z,34.80
2017-07-08T04:28:01.323Z,35.87
2017-07-08T04:30:28.384Z,34.10
2017-07-08T04:32:55.458Z,32.60
2017-07-08T04:35:21.783Z,33.80
2017-07-08T04:37:48.138Z,34.50
2017-07-08T04:40:14.503Z,29.83
2017-07-08T04:42:40.865Z,33.00
2017-07-08T04:45:07.233Z,31.90
2017-07-08T04:47:33.572Z,34.30
2017-07-08T04:49:59.896Z,36.00
2017-07-08T04:52:26.244Z,37.17
2017-07-08T04:54:52.692Z,37.07
2017-07-08T04:57:19.009Z,35.37
2017-07-08T04:59:45.334Z,34.40
2017-07-08T05:02:11.703Z,32.37
2017-07-08T05:04:38.334Z,34.80
2017-07-08T05:07:04.863Z,30.60
2017-07-08T05:09:31.426Z,32.57
2017-07-08T05:11:57.746Z,28.33
2017-07-08T05:14:24.276Z,30.97
2017-07-08T05:16:50.884Z,31.87
2017-07-08T05:19:17.416Z,30.27
2017-07-08T05:21:43.958Z,29.07
2017-07-08T05:24:10.545Z,28.10
2017-07-08T05:29:10.608Z,26.23
2017-07-08T05:31:37.005Z,28.20
2017-07-08T05:34:04.180Z,25.80
2017-07-08T05:36:30.524Z,26.67
2017-07-08T05:38:56.914Z,24.77
2017-07-08T05:41:23.513Z,26.27
2017-07-08T05:43:50.644Z,26.17
2017-07-08T05:46:16.973Z,26.30
2017-07-08T05:48:43.325Z,24.47
2017-07-08T05:51:09.694Z,25.73
2017-07-08T05:53:36.048Z,25.80
2017-07-08T05:56:02.449Z,23.53
2017-07-08T05:58:29.538Z,25.90
2017-07-08T06:00:55.950Z,26.13
2017-07-08T06:03:22.337Z,26.60
2017-07-08T06:05:48.663Z,26.63
2017-07-08T06:08:15.019Z,24.47
2017-07-08T06:10:41.356Z,25.60
2017-07-08T06:13:07.700Z,25.40
2017-07-08T06:15:34.047Z,25.37
2017-07-08T06:18:00.405Z,26.00
2017-07-08T06:20:26.745Z,25.40
2017-07-08T06:22:53.085Z,25.43
2017-07-08T06:25:19.509Z,23.60
2017-07-08T06:27:46.677Z,25.83
2017-07-08T06:30:12.993Z,24.20
2017-07-08T06:32:40.246Z,23.70
2017-07-08T06:35:07.129Z,23.27
2017-07-08T06:37:33.448Z,23.40
2017-07-08T06:39:59.935Z,24.27
2017-07-08T06:42:26.325Z,21.90
2017-07-08T06:44:52.671Z,23.07
2017-07-08T06:47:18.999Z,22.17
2017-07-08T06:49:45.443Z,23.30
2017-07-08T06:52:11.765Z,19.27
2017-07-08T06:54:38.269Z,21.20
2017-07-08T06:57:04.878Z,21.00
2017-07-08T06:59:31.204Z,20.80
2017-07-08T07:01:57.607Z,22.27
2017-07-08T07:04:23.939Z,23.37
2017-07-08T07:06:50.389Z,22.43
2017-07-08T07:09:16.717Z,21.57
2017-07-08T07:11:43.082Z,22.90
2017-07-08T07:14:10.181Z,21.10
2017-07-08T07:16:36.554Z,23.13
2017-07-08T07:19:02.870Z,22.90
2017-07-08T07:21:30.012Z,22.40
2017-07-08T07:23:56.319Z,22.03
2017-07-08T07:26:22.880Z,22.57
2017-07-08T07:28:49.251Z,21.70
2017-07-08T07:31:15.833Z,23.33
2017-07-08T07:33:42.160Z,23.30
2017-07-08T07:36:08.492Z,24.27
2017-07-08T07:38:34.807Z,23.90
2017-07-08T07:41:01.130Z,23.80
2017-07-08T07:43:27.444Z,23.67
2017-07-08T07:45:53.760Z,25.80
2017-07-08T07:48:20.306Z,23.97
2017-07-08T07:50:46.824Z,21.50
2017-07-08T07:53:13.395Z,21.70
2017-07-08T07:55:40.050Z,21.60
2017-07-08T07:58:06.372Z,19.73
2017-07-08T08:00:32.918Z,18.77
2017-07-08T08:02:59.451Z,19.80
2017-07-08T08:05:26.103Z,17.80
2017-07-08T08:07:52.881Z,16.40
2017-07-08T08:10:19.477Z,15.40
2017-07-08T08:12:46.753Z,15.63
2017-07-08T08:15:13.295Z,17.20
2017-07-08T08:17:40.607Z,15.73
2017-07-08T08:20:07.140Z,17.70
2017-07-08T08:22:33.676Z,16.80
2017-07-08T08:25:00.227Z,15.77
2017-07-08T08:27:27.498Z,12.63
2017-07-08T08:29:54.545Z,11.60
2017-07-08T08:32:20.931Z,12.67
2017-07-08T08:34:47.241Z,14.10
2017-07-08T08:37:13.565Z,15.33
2017-07-08T08:39:39.906Z,16.20
2017-07-08T08:42:06.450Z,14.77
2017-07-08T08:44:32.973Z,14.00
2017-07-08T08:46:59.281Z,13.00
2017-07-08T08:49:25.808Z,13.83
2017-07-08T08:51:52.353Z,12.20
2017-07-08T08:54:18.890Z,13.50
2017-07-08T08:56:46.361Z,13.97
2017-07-08T08:59:12.902Z,13.07
2017-07-08T09:01:39.467Z,13.20
2017-07-08T09:04:06.069Z,13.40
2017-07-08T09:06:32.604Z,13.17
2017-07-08T09:09:00.055Z,13.93
2017-07-08T09:11:27.234Z,12.30
2017-07-08T09:13:53.557Z,13.27
2017-07-08T09:16:20.090Z,13.70
2017-07-08T09:18:46.677Z,13.27
2017-07-08T09:21:13.269Z,13.47
2017-07-08T09:23:41.314Z,13.50
2017-07-08T09:26:07.906Z,13.13
2017-07-08T09:28:40.741Z,12.00
2017-07-08T09:31:08.070Z,11.43
2017-07-08T09:33:34.598Z,10.80
2017-07-08T09:36:01.164Z,10.10
2017-07-08T09:38:27.737Z,10.20
2017-07-08T09:40:54.290Z,11.40
2017-07-08T09:43:20.911Z,11.60
2017-07-08T09:45:48.096Z,12.00
2017-07-08T09:48:15.381Z,11.60
2017-07-08T09:50:42.087Z,11.37
2017-07-08T09:53:08.625Z,11.33
2017-07-08T09:55:35.185Z,10.73
2017-07-08T09:58:01.938Z,11.00
2017-07-08T10:00:28.432Z,10.67
2017-07-08T10:02:55.124Z,9.60
2017-07-08T10:05:21.660Z,7.53
2017-07-08T10:07:48.203Z,9.10
2017-07-08T10:10:14.788Z,8.20
2017-07-08T10:12:41.454Z,7.83
2017-07-08T10:15:08.735Z,9.43
2017-07-08T10:17:35.334Z,8.60
2017-07-08T10:20:01.909Z,7.50
2017-07-08T10:22:28.560Z,9.33
2017-07-08T10:24:55.129Z,9.80
2017-07-08T10:27:21.713Z,9.37
2017-07-08T10:29:48.362Z,9.90
2017-07-08T10:32:15.622Z,9.40
2017-07-08T10:34:42.171Z,11.90
2017-07-08T10:37:08.734Z,9.30
2017-07-08T10:39:35.401Z,8.40
2017-07-08T10:42:01.971Z,8.73
2017-07-08T10:44:28.510Z,8.50
2017-07-08T10:46:55.085Z,8.73
2017-07-08T10:49:21.655Z,7.40
2017-07-08T10:51:48.245Z,6.67
2017-07-08T10:54:14.949Z,6.70
2017-07-08T10:56:48.308Z,6.80
2017-07-08T10:59:15.402Z,8.03
2017-07-08T11:01:41.757Z,8.77
2017-07-08T11:04:08.865Z,8.07
2017-07-08T11:06:35.217Z,8.63
2017-07-08T11:09:01.799Z,7.37
2017-07-08T11:11:30.934Z,7.07
2017-07-08T11:13:57.300Z,6.33
2017-07-08T11:16:23.638Z,6.93
2017-07-08T11:18:49.982Z,6.50
2017-07-08T11:21:17.085Z,7.80
2017-07-08T11:23:43.442Z,7.50
2017-07-08T11:26:09.789Z,7.40
2017-07-08T11:28:36.936Z,7.30
2017-07-08T11:31:03.236Z,7.67
2017-07-08T11:33:29.580Z,6.53
2017-07-08T11:35:55.967Z,8.57
2017-07-08T11:38:22.322Z,7.30
2017-07-08T11:40:48.661Z,7.60
2017-07-08T11:43:15.019Z,7.77
2017-07-08T11:45:41.461Z,7.77
2017-07-08T11:48:07.799Z,6.20
2017-07-08T11:50:34.161Z,6.40
2017-07-08T11:53:00.515Z,6.47
2017-07-08T11:55:26.860Z,6.90
2017-07-08T11:57:53.195Z,5.83
2017-07-08T12:00:19.537Z,6.53
2017-07-08T12:02:46.613Z,6.80
2017-07-08T12:05:13.700Z,6.70
2017-07-08T12:10:31.306Z,6.37
2017-07-08T12:12:57.701Z,6.83
2017-07-08T12:15:24.787Z,6.17
2017-07-08T12:17:51.097Z,6.53
2017-07-08T12:20:17.423Z,7.23
2017-07-08T12:22:43.736Z,6.23
2017-07-08T12:25:10.078Z,6.13
2017-07-08T12:27:37.150Z,6.00
2017-07-08T12:30:03.468Z,6.30
2017-07-08T12:32:29.789Z,6.77
2017-07-08T12:34:56.850Z,6.73
2017-07-08T12:37:23.353Z,6.40
2017-07-08T12:39:49.766Z,6.33
2017-07-08T12:42:16.092Z,6.10
2017-07-08T12:44:42.423Z,6.87
2017-07-08T12:47:08.811Z,6.40
2017-07-08T12:49:35.152Z,5.90
2017-07-08T12:52:01.601Z,6.53
2017-07-08T12:54:28.709Z,6.07
2017-07-08T12:56:55.057Z,5.50
2017-07-08T12:59:21.392Z,6.10
2017-07-08T13:01:47.746Z,6.00
2017-07-08T13:04:14.080Z,5.90
2017-07-08T13:06:40.378Z,6.73
2017-07-08T13:09:06.698Z,5.60
2017-07-08T13:11:33.001Z,6.17
2017-07-08T13:14:00.095Z,5.57
2017-07-08T13:16:26.428Z,5.50
2017-07-08T13:18:52.737Z,5.57
2017-07-08T13:21:19.064Z,5.33
2017-07-08T13:23:45.396Z,5.97
2017-07-08T13:26:11.736Z,5.60
2017-07-08T13:28:38.111Z,5.83
2017-07-08T13:31:04.543Z,5.47
2017-07-08T13:33:30.904Z,7.03
2017-07-08T13:35:57.369Z,6.37
2017-07-08T13:38:38.649Z,6.40
2017-07-08T13:41:04.983Z,6.40
2017-07-08T13:43:31.340Z,7.33
2017-07-08T13:45:57.697Z,6.70
2017-07-08T13:48:24.084Z,7.67
2017-07-08T13:50:51.185Z,6.77
2017-07-08T13:53:17.597Z,7.37
2017-07-08T13:55:43.949Z,7.80
2017-07-08T13:58:10.285Z,6.93
2017-07-08T14:00:36.673Z,7.63
2017-07-08T14:03:03.033Z,7.57
2017-07-08T14:05:29.402Z,7.23
2017-07-08T14:07:56.500Z,7.73
2017-07-08T14:10:23.604Z,8.53
2017-07-08T14:12:50.069Z,8.57
2017-07-08T14:15:16.429Z,9.10
2017-07-08T14:17:42.781Z,8.37
2017-07-08T14:20:09.152Z,8.40
2017-07-08T14:22:35.592Z,9.77
2017-07-08T14:25:01.922Z,8.63
2017-07-08T14:27:28.529Z,10.70
2017-07-08T14:29:55.238Z,9.70
2017-07-08T14:32:21.604Z,9.47
2017-07-08T14:34:48.049Z,10.00
2017-07-08T14:37:14.583Z,10.70
2017-07-08T14:39:40.925Z,9.17
2017-07-08T14:42:07.267Z,10.87
2017-07-08T14:44:33.633Z,11.10
2017-07-08T14:47:00.086Z,10.97
2017-07-08T14:49:26.449Z,10.50
2017-07-08T14:51:54.117Z,10.80
2017-07-08T14:54:27.376Z,10.40
2017-07-08T14:56:53.758Z,10.50
2017-07-08T14:59:20.218Z,11.33
2017-07-08T15:01:46.702Z,10.70
2017-07-08T15:04:13.058Z,10.00
2017-07-08T15:06:39.380Z,10.87
2017-07-08T15:09:06.467Z,10.93
2017-07-08T15:11:32.808Z,8.97
2017-07-08T15:13:59.126Z,8.87
2017-07-08T15:16:25.458Z,8.60
2017-07-08T15:18:51.943Z,8.27
2017-07-08T15:21:18.556Z,9.00
2017-07-08T15:23:44.885Z,9.83
2017-07-08T15:26:11.199Z,9.63
2017-07-08T15:28:38.445Z,9.90
2017-07-08T15:31:06.666Z,9.53
2017-07-08T15:33:33.092Z,9.93
2017-07-08T15:35:59.859Z,8.60
2017-07-08T15:38:27.384Z,9.80
2017-07-08T15:40:54.589Z,9.53
2017-07-08T15:43:21.247Z,9.47
2017-07-08T15:45:47.629Z,9.23
2017-07-08T15:48:14.018Z,8.73
2017-07-08T15:50:40.464Z,8.30
2017-07-08T15:53:22.807Z,7.07
2017-07-08T15:55:49.550Z,7.83
2017-07-08T15:58:15.983Z,8.40
2017-07-08T16:00:42.570Z,8.40
2017-07-08T16:03:09.678Z,8.17
2017-07-08T16:05:36.071Z,7.80
2017-07-08T16:08:02.481Z,8.47
2017-07-08T16:10:28.958Z,8.20
2017-07-08T16:12:55.374Z,9.00
2017-07-08T16:15:21.914Z,8.53
2017-07-08T16:17:48.284Z,8.53
2017-07-08T16:20:14.626Z,7.93
2017-07-08T16:22:41.037Z,10.30
2017-07-08T16:25:07.357Z,8.70
2017-07-08T16:27:33.822Z,8.50
2017-07-08T16:30:00.213Z,9.93
2017-07-08T16:32:26.560Z,8.97
2017-07-08T16:34:52.891Z,9.43
2017-07-08T16:37:19.242Z,8.63
2017-07-08T16:39:45.801Z,9.60
2017-07-08T16:42:12.881Z,8.40
2017-07-08T16:44:39.811Z,8.00
2017-07-08T16:47:06.627Z,7.77
2017-07-08T16:49:34.880Z,8.33
2017-07-08T16:52:01.240Z,7.73
2017-07-08T16:54:27.570Z,7.30
2017-07-08T16:56:54.636Z,7.20
2017-07-08T16:59:20.985Z,7.63
2017-07-08T17:01:47.549Z,7.20
2017-07-08T17:04:13.957Z,7.60
2017-07-08T17:06:41.185Z,7.70
2017-07-08T17:09:07.524Z,7.53
2017-07-08T17:11:33.917Z,6.90
2017-07-08T17:14:00.334Z,7.47
2017-07-08T17:16:27.743Z,7.10
2017-07-08T17:18:54.894Z,7.00
2017-07-08T17:21:21.254Z,7.40
2017-07-08T17:23:47.661Z,6.53
2017-07-08T17:26:14.002Z,6.70
2017-07-08T17:28:40.365Z,6.27
2017-07-08T17:31:06.685Z,7.47
2017-07-08T17:33:33.045Z,7.57
2017-07-08T17:36:00.179Z,6.87
2017-07-08T17:38:26.573Z,7.03
2017-07-08T17:40:52.914Z,5.33
2017-07-08T17:43:19.313Z,6.57
2017-07-08T17:45:46.374Z,6.97
2017-07-08T17:48:12.781Z,6.50
2017-07-08T17:50:39.161Z,6.17
2017-07-08T17:53:05.814Z,6.30
2017-07-08T17:55:41.150Z,6.23
2017-07-08T17:58:07.698Z,6.50
2017-07-08T18:00:34.050Z,5.73
2017-07-08T18:03:00.671Z,6.20
2017-07-08T18:05:27.256Z,6.60
2017-07-08T18:07:53.702Z,5.77
2017-07-08T18:10:20.021Z,6.60
2017-07-08T18:12:46.568Z,6.53
2017-07-08T18:15:12.915Z,6.30
2017-07-08T18:17:39.241Z,7.70
2017-07-08T18:20:05.580Z,6.17
2017-07-08T18:22:32.684Z,5.90
2017-07-08T18:24:59.010Z,5.93
2017-07-08T18:27:25.620Z,5.80
2017-07-08T18:29:52.540Z,7.30
2017-07-08T18:32:18.890Z,6.00
2017-07-08T18:34:45.253Z,6.40
2017-07-08T18:37:11.597Z,6.40
2017-07-08T18:39:37.938Z,6.23
2017-07-08T18:42:04.261Z,6.30
2017-07-08T18:44:30.616Z,6.40
2017-07-08T18:46:56.987Z,6.47
2017-07-08T18:49:23.572Z,5.83
2017-07-08T18:51:49.921Z,6.10
2017-07-08T18:54:16.276Z,7.50
2017-07-08T18:56:42.610Z,7.07
2017-07-08T18:59:09.038Z,7.10
2017-07-08T19:01:35.374Z,6.90
2017-07-08T19:04:01.736Z,7.60
2017-07-08T19:06:28.093Z,8.43
2017-07-08T19:08:54.415Z,8.10
2017-07-08T19:11:20.746Z,7.33
2017-07-08T19:13:47.097Z,8.20
2017-07-08T19:16:13.873Z,6.57
2017-07-08T19:18:40.401Z,7.30
2017-07-08T19:21:06.823Z,6.80
2017-07-08T19:23:33.498Z,7.00
2017-07-08T19:25:59.887Z,6.20
2017-07-08T19:28:26.991Z,7.17
2017-07-08T19:30:53.363Z,8.00
2017-07-08T19:33:19.725Z,7.67
2017-07-08T19:35:46.049Z,7.33
2017-07-08T19:38:12.714Z,7.20
2017-07-08T19:40:40.071Z,6.73
2017-07-08T19:43:06.397Z,8.03
2017-07-08T19:45:32.714Z,7.03
2017-07-08T19:47:59.321Z,7.53
2017-07-08T19:50:25.739Z,7.33
2017-07-08T19:52:52.917Z,7.53
2017-07-08T19:55:19.327Z,8.33
2017-07-08T19:57:46.610Z,7.57
2017-07-08T20:00:13.058Z,8.43
2017-07-08T20:02:39.433Z,7.23
2017-07-08T20:05:06.021Z,7.90
2017-07-08T20:07:32.382Z,9.70
2017-07-08T20:09:58.726Z,8.33
2017-07-08T20:12:25.141Z,7.93
2017-07-08T20:14:51.491Z,9.70
2017-07-08T20:17:18.583Z,10.27
2017-07-08T20:19:45.005Z,9.60
2017-07-08T20:22:11.449Z,9.00
2017-07-08T20:24:38.599Z,8.70
2017-07-08T20:27:05.862Z,10.83
2017-07-08T20:29:32.252Z,11.37
2017-07-08T20:31:58.730Z,10.67
2017-07-08T20:34:25.052Z,9.90
2017-07-08T20:36:51.502Z,10.70
2017-07-08T20:39:18.729Z,12.53
2017-07-08T20:41:45.136Z,12.13
2017-07-08T20:44:26.577Z,12.10
2017-07-08T20:46:53.201Z,13.60
2017-07-08T20:49:19.966Z,13.20
2017-07-08T20:51:46.613Z,12.87
2017-07-08T20:54:13.246Z,12.03
2017-07-08T20:56:40.582Z,14.00
2017-07-08T20:59:07.162Z,13.10
2017-07-08T21:01:33.831Z,13.50
2017-07-08T21:04:00.401Z,13.30
2017-07-08T21:06:26.924Z,14.17
2017-07-08T21:09:08.224Z,13.53
2017-07-08T21:11:35.185Z,13.90
2017-07-08T21:14:01.838Z,14.80
2017-07-08T21:16:28.438Z,14.10
2017-07-08T21:18:55.734Z,13.47
2017-07-08T21:21:22.299Z,14.47
2017-07-08T21:23:48.828Z,14.03
2017-07-08T21:26:15.404Z,15.00
2017-07-08T21:28:48.855Z,13.03
2017-07-08T21:31:15.509Z,14.00
2017-07-08T21:33:42.082Z,14.27
2017-07-08T21:36:08.686Z,13.90
2017-07-08T21:38:35.329Z,13.53
2017-07-08T21:41:02.591Z,13.23
2017-07-08T21:43:29.265Z,13.17
2017-07-08T21:45:55.860Z,13.03
2017-07-08T21:48:22.961Z,14.47
2017-07-08T21:50:57.425Z,13.87
2017-07-08T21:53:24.131Z,14.17
2017-07-08T21:55:51.005Z,13.67
2017-07-08T21:58:17.541Z,14.17
2017-07-08T22:00:44.149Z,14.77
2017-07-08T22:03:10.854Z,13.40
2017-07-08T22:05:37.429Z,13.20
2017-07-08T22:08:04.020Z,12.90
2017-07-08T22:10:30.526Z,14.47
2017-07-08T22:12:57.093Z,13.13
2017-07-08T22:15:23.720Z,13.10
2017-07-08T22:17:50.266Z,13.40
2017-07-08T22:20:16.865Z,12.27
2017-07-08T22:22:43.674Z,11.87
2017-07-08T22:25:10.257Z,12.97
2017-07-08T22:27:36.824Z,10.93
2017-07-08T22:30:03.424Z,12.70
2017-07-08T22:32:30.044Z,12.07
2017-07-08T22:34:56.726Z,13.83
2017-07-08T22:37:23.337Z,12.93
2017-07-08T22:39:49.893Z,13.73
2017-07-08T22:42:16.454Z,13.53
2017-07-08T22:44:42.976Z,15.10
2017-07-08T22:47:09.559Z,14.20
2017-07-08T22:49:36.150Z,14.43
2017-07-08T22:52:03.436Z,13.57
2017-07-08T22:54:30.202Z,13.40
2017-07-08T22:56:56.940Z,13.27
2017-07-08T22:59:23.633Z,11.60
2017-07-08T23:01:53.577Z,12.93
2017-07-08T23:04:20.090Z,10.37
2017-07-08T23:06:46.661Z,12.20
2017-07-08T23:09:13.325Z,11.80
2017-07-08T23:11:39.935Z,13.00
2017-07-08T23:14:08.418Z,11.60
2017-07-08T23:16:35.031Z,11.37
2017-07-08T23:19:01.966Z,13.10
2017-07-08T23:21:28.561Z,12.60
2017-07-08T23:23:55.148Z,12.20
2017-07-08T23:26:21.745Z,11.87
2017-07-08T23:28:48.383Z,13.57
2017-07-08T23:31:15.237Z,12.10
2017-07-08T23:33:41.870Z,13.60
2017-07-08T23:36:08.710Z,13.33
2017-07-08T23:38:35.367Z,13.90
2017-07-08T23:41:02.802Z,13.83
2017-07-08T23:43:29.414Z,13.10
2017-07-08T23:45:56.255Z,13.27
2017-07-08T23:48:22.835Z,12.83
2017-07-08T23:50:49.408Z,12.30
2017-07-08T23:53:16.689Z,13.77
2017-07-08T23:55:44.483Z,13.00
2017-07-08T23:58:11.128Z,13.30
